Report METAR

 

LJLJ - Ljubljana/Brnik, Slovenia
Distance from station: O 41km
Dati ricevuti: 18/01/2021 07:00
Coperto
Coperto
 Vento da Variabile
Vento: Variabile 4 km/h
Temperatura: -4°C
P.to Rugiada: -5°C
Umidità: 93%
Barometro: 1022 hPa
Nuvole: Coperto
Visibility: 8 km
Cloud details: Coperto 610 m
2021/01/18 06:00 LJLJ 180600Z VRB02KT 8000 OVC020 M04/M05 Q1022 NOSIG
LJMB - Maribor, Slovenia
Distance from station: NE 63km
Dati ricevuti: 18/01/2021 07:00
Sereno
Sereno
 Vento da NO
Vento: NO 4 km/h
Temperatura: -8°C
P.to Rugiada: -9°C
Umidità: 93%
Barometro: 1022 hPa
Summary: Sereno
Visibility: superiore a 10 km
2021/01/18 06:00 LJMB 180600Z 31002KT CAVOK M08/M09 Q1022
 
LJPZ - Portoroz, Slovenia
Distance from station: SO 130km
Dati ricevuti: 18/01/2021 07:00
Molto nuvoloso
Molto nuvoloso
 Vento da ESE
Vento: ESE 9 km/h
Temperatura: 1°C
Temperatura Vento: -2°C
P.to Rugiada: -5°C
Umidità: 65%
Barometro: 1023 hPa
Nuvole: Molto nuvoloso
Visibility: 10 km
Cloud details: Molto nuvoloso 1311 m
2021/01/18 06:00 LJPZ 180600Z 12005KT 9999 BKN043 01/M05 Q1023
LJCE - Cerklje, Slovenia
Distance from station: ESE 49km
Dati ricevuti: 18/01/2021 07:00
Coperto
Coperto
 Vento da calmo
Vento: Calma
Temperatura: -3°C
P.to Rugiada: -4°C
Umidità: 93%
Barometro: 1024 hPa
Nuvole: Coperto
Visibility: 6 km
Cloud details: Coperto 1219 m
2021/01/18 06:00 LJCE 180600Z 00000KT 6000 OVC040 M03/M04 Q1024 RMK WHT
 
LDZA - Zagreb/Pleso, Croatia
Distance from station: ESE 96km
Dati ricevuti: 18/01/2021 07:00
Molto nuvoloso
Molto nuvoloso
 Vento da OSO
Vento: OSO 6 km/h
Temperatura: -4°C
P.to Rugiada: -5°C
Umidità: 93%
Barometro: 1024 hPa
Nuvole: Molto nuvoloso
Visibility: 10 km
Cloud details: Molto nuvoloso 1280 m
2021/01/18 06:00 LDZA 180600Z 25003KT 9999 BKN042 M04/M05 Q1024 NOSIG
LDRI - Rijeka/Omisalj, Croatia
Distance from station: SSO 109km
Dati ricevuti: 18/01/2021 07:00
Few Clouds
Few Clouds
 Vento da calmo
Vento: Calma
Temperatura: -1°C
P.to Rugiada: -7°C
Umidità: 64%
Barometro: 1023 hPa
Nuvole: Few Clouds
Visibility: 10 km
Cloud details: Few Clouds 1737 m
2021/01/18 06:00 LDRI 180600Z 00000KT 9999 FEW057 M01/M07 Q1023
 
LDPL - Pula, Croatia
Distance from station: SSO 164km
Dati ricevuti: 18/01/2021 07:00
Few Clouds
Few Clouds
 Vento da NO
Vento: NO 6 km/h
Temperatura: -2°C
P.to Rugiada: -5°C
Umidità: 80%
Barometro: 1022 hPa
Nuvole: Few Clouds
Visibility: 10 km
Cloud details: Few Clouds 1036 m
2021/01/18 06:00 LDPL 180600Z 31003KT 230V340 9999 FEW034 M02/M05 Q1022 NOSIG
LOWK - Klagenfurt(Civ/M, Austria
Distance from station: NO 76km
Dati ricevuti: 18/01/2021 06:50
Molto nuvoloso
Molto nuvoloso
 Vento da NO
Vento: NO 7 km/h
Temperatura: -11°C
Temperatura Vento: -16°C
P.to Rugiada: -13°C
Umidità: 85%
Barometro: 1022 hPa
Nuvole: Molto nuvoloso
Visibility: 6 km
Cloud details: Parz. nuvoloso 152 m
Molto nuvoloso 335 m
2021/01/18 05:50 LOWK 180550Z 31004KT 6000 SCT005 BKN011 M11/M13 Q1022 NOSIG
 
LOWG - Graz (mil/Civ), Austria
Distance from station: NNE 100km
Dati ricevuti: 18/01/2021 06:50
Coperto
Coperto
 Vento da S
Vento: S 6 km/h
Temperatura: -5°C
P.to Rugiada: -6°C
Umidità: 93%
Barometro: 1021 hPa
Nuvole: Coperto
Visibility: 10 km
Cloud details: Coperto 305 m
2021/01/18 05:50 LOWG 180550Z 19003KT 160V220 9999 OVC010 M05/M06 Q1021 R17/19//95 NOSIG
LOAN - Wr.neustadt East, Austria
Distance from station: NNE 212km
Dati ricevuti: 17/01/2021 17:00
DATI Obsoleti
Light snow, Nuvoloso
Light snow, Nuvoloso
 Vento da NNO
Vento: NNO 9 km/h
Summary: Light Snow
Nuvole: Molto nuvoloso
Cloud details: Few Clouds 914 m
Molto nuvoloso 1524 m
2021/01/17 16:00 LOAN 171600Z 33005KT 10KM -SN FEW030SC BKN050SC
 
LIPQ - Ronchi Legionari, Italy
Distance from station: SO 35km
Dati ricevuti: 18/01/2021 06:50
Molto nuvoloso
Molto nuvoloso
 Vento da Variabile
Vento: Variabile 4 km/h
Temperatura: 0°C
P.to Rugiada: -5°C
Umidità: 69%
Barometro: 1023 hPa
Nuvole: Molto nuvoloso
Visibility: 10 km
Cloud details: Molto nuvoloso 1402 m
2021/01/18 05:50 LIPQ 180550Z AUTO VRB02KT 9999 BKN046/// 00/M05 Q1023
LIVT - Trieste, Italy
Distance from station: OSO 109km
Dati ricevuti: 18/01/2021 06:55
Sereno
Sereno
 Vento da Variabile
Vento: Variabile 0 km/h
Temperatura: 2°C
P.to Rugiada: -5°C
Umidità: 60%
Barometro: 1022 hPa
Summary: Sereno
Visibility: superiore a 10 km
2021/01/18 05:55 LIVT 180555Z /////KT CAVOK 02/M05 Q1022 RMK BKN BKN080 QUK / QUL / VIS MAR 20 KM VIS MIN 9999
 
LIVO - Tarvisio, Italy
Distance from station: NNO 49km
Dati ricevuti: 17/01/2021 18:55
DATI Obsoleti
Sereno
Sereno
 Vento da calmo
Vento: Calma
Temperatura: -9°C
P.to Rugiada: -11°C
Umidità: 86%
Barometro: 1014 hPa
Summary: Sereno
Visibility: superiore a 10 km
2021/01/17 17:55 LIVO 171755Z 00000KT CAVOK M09/M11 Q1014 RMK FEW FEW060 VIS MIN 9999
LIPZ - Venezia/Tessera, Italy
Distance from station: OSO 217km
Dati ricevuti: 18/01/2021 06:50
Sereno
Sereno
 Vento da NNE
Vento: NNE 11 km/h
Temperatura: -2°C
Temperatura Vento: -6°C
P.to Rugiada: -6°C
Umidità: 74%
Barometro: 1022 hPa
Summary: Sereno
Visibility: superiore a 10 km
2021/01/18 05:50 LIPZ 180550Z 02006KT CAVOK M02/M06 Q1022 NOSIG
 
LHSM - Balaton, Hungary
Distance from station: ENE 177km
Dati ricevuti: 18/01/2021 06:45
Molto nuvoloso
Molto nuvoloso
 Vento da OSO
Vento: OSO 7 km/h
Temperatura: -4°C
Temperatura Vento: -7°C
P.to Rugiada: -5°C
Umidità: 93%
Barometro: 1023 hPa
Nuvole: Molto nuvoloso
Visibility: 7 km
Cloud details: Molto nuvoloso 1006 m
2021/01/18 05:45 LHSM 180545Z AUTO 24004KT 7000 BKN033 M04/M05 Q1023